Time;durP1;ratioP1;P1;durP2;ratioP2;P2;SDS_P1;SDS_P2;PMS_P1;PMS_P2;Temp;Humidity;BMP_temperature;BMP_pressure;BME280_temperature;BME280_humidity;BME280_pressure;Samples;Min_cycle;Max_cycle;Signal;HPM_P1;HPM_P2
2023/04/22 00:00:23;;;;;;;;;;;;;;;13.28;89.00;99494.94;4969153;28;19924;-96
2023/04/22 00:09:24;;;;;;;;;;;;;;;13.37;88.33;99511.44;4999756;28;20331;-92
2023/04/22 00:11:50;;;;;;;;;;;;;;;13.27;88.26;99504.66;4974603;28;19960;-96
2023/04/22 00:14:15;;;;;;;;;;;;;;;13.26;90.13;99510.88;4974019;28;19914;-93
2023/04/22 00:16:40;;;;;;;;;;;;;;;13.33;89.95;99507.16;4972929;28;20271;-92
2023/04/22 00:19:05;;;;;;;;;;;;;;;13.35;90.53;99502.69;4972661;28;19971;-92
2023/04/22 00:21:31;;;;;;;;;;;;;;;13.50;89.48;99508.44;4963182;28;19968;-93
2023/04/22 00:23:57;;;;;;;;;;;;;;;13.52;89.52;99506.63;4983328;28;20432;-94
2023/04/22 00:26:22;;;;;;;;;;;;;;;13.62;88.89;99497.47;4977551;28;20374;-92
2023/04/22 00:28:47;;;;;;;;;;;;;;;13.69;88.65;99493.72;4989126;28;20342;-92
2023/04/22 00:31:13;;;;;;;;;;;;;;;13.70;89.10;99492.81;4972866;28;20402;-92
2023/04/22 00:33:38;;;;;;;;;;;;;;;13.73;88.21;99489.19;4972533;28;20375;-92
2023/04/22 00:36:05;;;;;;;;;;;;;;;13.68;89.03;99497.28;4989192;28;20429;-92
2023/04/22 00:38:30;;;;;;;;;;;;;;;13.66;89.38;99492.94;4989246;28;19914;-92
2023/04/22 00:40:56;;;;;;;;;;;;;;;13.77;88.97;99489.03;4993885;28;19921;-91
2023/04/22 00:43:21;;;;;;;;;;;;;;;13.77;88.80;99494.34;5014108;28;19913;-94
2023/04/22 00:45:47;;;;;;;;;;;;;;;13.66;90.01;99488.50;5012457;28;19921;-92
2023/04/22 00:48:14;;;;;;;;;;;;;;;13.77;88.53;99489.03;5009639;28;19917;-93
2023/04/22 00:50:41;;;;;;;;;;;;;;;13.77;89.17;99496.97;5011377;28;20391;-94
2023/04/22 00:53:06;;;;;;;;;;;;;;;13.88;88.10;99485.19;5020449;28;20403;-95
2023/04/22 00:55:32;;;;;;;;;;;;;;;13.81;88.72;99484.53;5029819;28;19917;-94
2023/04/22 00:58:00;;;;;;;;;;;;;;;13.85;88.47;99490.59;5032231;28;19917;-95
2023/04/22 01:00:27;;;;;;;;;;;;;;;13.83;88.60;99495.06;5032187;28;19917;-95
2023/04/22 01:02:53;;;;;;;;;;;;;;;13.87;88.52;99497.59;5014573;28;19920;-95
2023/04/22 01:05:19;;;;;;;;;;;;;;;13.85;87.68;99472.03;5013260;28;20402;-90
2023/04/22 01:07:47;;;;;;;;;;;;;;;13.93;87.04;99497.38;4997547;28;19921;-96
2023/04/22 01:10:13;;;;;;;;;;;;;;;13.97;87.10;99495.50;5015253;28;19913;-96
2023/04/22 01:12:40;;;;;;;;;;;;;;;13.98;87.08;99499.88;5016123;28;19945;-96
2023/04/22 01:15:05;;;;;;;;;;;;;;;13.94;86.86;99501.75;5015089;28;19913;-96
2023/04/22 01:17:32;;;;;;;;;;;;;;;13.87;86.24;99502.88;5012705;28;19967;-94
2023/04/22 01:19:59;;;;;;;;;;;;;;;13.76;86.55;99508.53;5012422;28;19924;-91
2023/04/22 01:22:26;;;;;;;;;;;;;;;13.85;86.32;99507.34;4996781;28;19921;-93
2023/04/22 01:24:52;;;;;;;;;;;;;;;14.02;86.45;99498.84;5030324;28;19917;-92
2023/04/22 01:27:19;;;;;;;;;;;;;;;14.12;85.91;99504.75;5012401;28;20686;-94
2023/04/22 01:29:45;;;;;;;;;;;;;;;13.98;86.32;99505.19;5012957;28;19917;-93
2023/04/22 01:32:10;;;;;;;;;;;;;;;13.94;87.24;99501.75;5013584;28;19999;-94
2023/04/22 01:34:35;;;;;;;;;;;;;;;13.80;88.13;99496.03;5021496;28;19921;-96
2023/04/22 01:37:02;;;;;;;;;;;;;;;13.87;87.26;99496.69;5021825;28;19913;-96
2023/04/22 01:39:28;;;;;;;;;;;;;;;13.79;88.08;99495.19;5017472;28;20264;-96
2023/04/22 01:41:54;;;;;;;;;;;;;;;13.86;86.89;99490.53;5017828;28;19920;-96
2023/04/22 01:44:19;;;;;;;;;;;;;;;13.81;87.00;99492.47;5016632;28;20354;-93
2023/04/22 01:46:45;;;;;;;;;;;;;;;13.66;87.76;99509.72;5034463;28;19936;-95
2023/04/22 01:49:12;;;;;;;;;;;;;;;13.62;87.22;99497.47;5014835;28;20003;-94
2023/04/22 01:51:37;;;;;;;;;;;;;;;13.65;87.16;99496.50;4996841;28;20003;-93
2023/04/22 01:54:03;;;;;;;;;;;;;;;13.60;86.62;99499.28;5016306;28;20422;-93
2023/04/22 01:56:28;;;;;;;;;;;;;;;13.50;87.69;99503.13;5034049;28;19913;-93
2023/04/22 01:58:53;;;;;;;;;;;;;;;13.22;88.56;99503.91;4999036;28;19927;-92
2023/04/22 02:01:19;;;;;;;;;;;;;;;13.23;88.47;99497.72;5033347;28;19972;-89
2023/04/22 02:03:44;;;;;;;;;;;;;;;13.46;87.57;99501.50;5033241;28;20456;-90
2023/04/22 02:06:10;;;;;;;;;;;;;;;13.46;87.50;99502.38;5015239;28;19923;-92
2023/04/22 02:08:35;;;;;;;;;;;;;;;13.41;87.91;99491.91;5016048;28;20054;-92
2023/04/22 02:11:02;;;;;;;;;;;;;;;13.51;87.69;99494.28;5032506;28;19948;-91
2023/04/22 02:13:37;;;;;;;;;;;;;;;13.48;86.91;99489.94;5030410;28;19917;-92
2023/04/22 02:16:03;;;;;;;;;;;;;;;13.40;87.91;99490.16;5033077;28;19913;-92
2023/04/22 02:18:28;;;;;;;;;;;;;;;13.28;87.49;99490.50;5014954;28;19916;-92
2023/04/22 02:20:54;;;;;;;;;;;;;;;13.39;87.05;99491.09;5033242;28;20067;-92
2023/04/22 02:23:19;;;;;;;;;;;;;;;13.32;86.53;99486.00;5034467;28;19920;-94
2023/04/22 02:25:50;;;;;;;;;;;;;;;13.25;87.05;99487.94;5014716;28;19917;-94
2023/04/22 02:28:16;;;;;;;;;;;;;;;13.17;86.54;99485.50;5016335;28;19975;-93
2023/04/22 02:30:41;;;;;;;;;;;;;;;13.13;86.14;99480.34;5016319;28;19913;-94
2023/04/22 02:33:07;;;;;;;;;;;;;;;13.05;86.47;99478.81;5033624;28;19913;-94
2023/04/22 02:35:33;;;;;;;;;;;;;;;12.78;86.18;99485.72;5015368;28;20000;-94
2023/04/22 02:37:58;;;;;;;;;;;;;;;12.82;85.94;99491.78;5015890;28;20376;-95
2023/04/22 02:40:24;;;;;;;;;;;;;;;12.83;85.23;99493.53;4999742;28;19944;-95
2023/04/22 02:42:49;;;;;;;;;;;;;;;12.88;85.38;99491.63;5015317;28;20375;-94
2023/04/22 02:45:15;;;;;;;;;;;;;;;12.84;85.01;99493.50;5014994;28;19924;-93
2023/04/22 02:47:40;;;;;;;;;;;;;;;12.78;85.16;99488.38;5014938;28;19913;-94
2023/04/22 02:50:06;;;;;;;;;;;;;;;12.77;85.07;99499.00;5033230;28;19913;-93
2023/04/22 02:52:32;;;;;;;;;;;;;;;12.83;84.25;99502.34;5014956;28;19913;-94
2023/04/22 02:54:58;;;;;;;;;;;;;;;12.79;84.25;99502.47;5032812;28;19940;-93
2023/04/22 02:57:23;;;;;;;;;;;;;;;12.71;84.72;99494.72;5015149;28;19913;-95
2023/04/22 02:59:49;;;;;;;;;;;;;;;12.66;84.19;99496.63;5012193;28;20055;-93
2023/04/22 03:02:14;;;;;;;;;;;;;;;12.63;84.32;99496.72;4995705;28;19917;-94
2023/04/22 03:04:40;;;;;;;;;;;;;;;12.69;83.32;99489.47;5012041;28;20279;-94
2023/04/22 03:07:05;;;;;;;;;;;;;;;12.48;84.19;99496.22;5015298;28;20410;-94
2023/04/22 03:09:32;;;;;;;;;;;;;;;12.33;85.14;99500.13;5022565;28;20349;-91
2023/04/22 03:12:03;;;;;;;;;;;;;;;12.34;85.10;99503.63;5032347;28;19924;-95
2023/04/22 03:14:28;;;;;;;;;;;;;;;12.34;85.44;99501.88;5014996;28;19913;-94
2023/04/22 03:16:54;;;;;;;;;;;;;;;12.23;85.65;99503.88;5014202;28;19917;-90
2023/04/22 03:19:19;;;;;;;;;;;;;;;12.31;85.34;99499.31;5014546;28;19917;-92
2023/04/22 03:21:44;;;;;;;;;;;;;;;12.38;84.77;99504.44;5014219;28;20004;-92
2023/04/22 03:24:10;;;;;;;;;;;;;;;12.26;84.29;99498.53;5015471;28;20003;-93
2023/04/22 03:26:35;;;;;;;;;;;;;;;12.09;84.11;99501.59;5031140;28;19948;-89
2023/04/22 03:29:00;;;;;;;;;;;;;;;12.07;84.14;99502.56;5030694;28;19932;-92
2023/04/22 03:31:26;;;;;;;;;;;;;;;11.86;83.94;99499.47;5013196;28;19979;-91
2023/04/22 03:33:51;;;;;;;;;;;;;;;11.78;83.82;99502.28;5029981;28;19966;-92
2023/04/22 03:36:16;;;;;;;;;;;;;;;11.60;84.97;99500.94;5031340;28;20391;-91
2023/04/22 03:38:42;;;;;;;;;;;;;;;11.62;84.49;99499.13;5013323;28;20279;-91
2023/04/22 03:41:08;;;;;;;;;;;;;;;11.64;84.72;99512.31;5031114;28;20381;-92
2023/04/22 03:43:33;;;;;;;;;;;;;;;11.66;84.60;99502.56;5013103;28;19924;-92
2023/04/22 03:45:59;;;;;;;;;;;;;;;11.12;87.29;99514.25;5013709;28;20399;-89
2023/04/22 03:48:24;;;;;;;;;;;;;;;11.39;86.49;99518.13;5030929;28;20307;-91
2023/04/22 03:50:49;;;;;;;;;;;;;;;11.49;86.35;99518.78;5031292;28;20351;-91
2023/04/22 03:53:15;;;;;;;;;;;;;;;11.34;86.75;99522.63;5013044;28;19963;-92
2023/04/22 03:55:40;;;;;;;;;;;;;;;11.54;85.94;99526.59;5012511;28;20414;-90
2023/04/22 03:58:07;;;;;;;;;;;;;;;11.50;86.15;99535.50;5031100;28;20370;-91
2023/04/22 04:00:32;;;;;;;;;;;;;;;11.65;86.31;99532.53;5005879;28;20345;-92
2023/04/22 04:02:58;;;;;;;;;;;;;;;11.71;85.96;99537.69;5011646;28;19917;-92
2023/04/22 04:05:23;;;;;;;;;;;;;;;11.84;85.31;99533.00;5006447;28;20000;-93
2023/04/22 04:07:48;;;;;;;;;;;;;;;11.76;83.53;99535.81;4993084;28;19917;-92
2023/04/22 04:10:14;;;;;;;;;;;;;;;11.79;84.49;99533.09;4975191;28;19975;-91
2023/04/22 04:12:39;;;;;;;;;;;;;;;11.94;83.58;99537.22;5010864;28;19921;-93
2023/04/22 04:15:05;;;;;;;;;;;;;;;11.96;83.18;99540.66;4994559;28;19924;-94
2023/04/22 04:17:32;;;;;;;;;;;;;;;12.06;82.95;99543.97;4994848;28;19932;-96
2023/04/22 04:19:57;;;;;;;;;;;;;;;11.98;82.82;99543.28;4994964;28;19944;-95
2023/04/22 04:22:23;;;;;;;;;;;;;;;11.77;83.51;99545.47;4993162;28;20388;-96
2023/04/22 04:24:57;;;;;;;;;;;;;;;11.68;84.61;99550.09;4982883;28;19924;-96
2023/04/22 04:27:38;;;;;;;;;;;;;;;11.68;85.88;99543.03;5010425;28;19918;-96
2023/04/22 04:30:17;;;;;;;;;;;;;;;11.54;87.30;99550.38;5004127;28;19921;-95
2023/04/22 04:32:44;;;;;;;;;;;;;;;11.79;87.03;99550.72;5004099;28;19917;-92
2023/04/22 04:35:11;;;;;;;;;;;;;;;12.04;85.46;99551.06;5013425;28;19976;-89
2023/04/22 04:37:39;;;;;;;;;;;;;;;11.65;88.06;99558.97;5003105;28;20071;-90
2023/04/22 04:40:05;;;;;;;;;;;;;;;11.64;89.11;99558.06;4992094;28;19917;-89
2023/04/22 04:42:32;;;;;;;;;;;;;;;11.70;87.98;99565.00;4992977;28;19921;-91
2023/04/22 04:44:57;;;;;;;;;;;;;;;11.70;89.35;99559.72;4992381;28;19918;-92
2023/04/22 04:47:23;;;;;;;;;;;;;;;11.79;90.76;99562.16;5009528;28;19917;-95
2023/04/22 04:49:52;;;;;;;;;;;;;;;11.83;90.48;99560.31;4990485;28;20380;-91
2023/04/22 04:52:17;;;;;;;;;;;;;;;11.96;90.58;99569.75;5028718;28;19913;-91
2023/04/22 04:54:44;;;;;;;;;;;;;;;11.97;90.24;99582.06;5018183;28;20295;-93
2023/04/22 04:57:09;;;;;;;;;;;;;;;11.88;91.01;99576.97;5010409;28;19917;-91
2023/04/22 04:59:36;;;;;;;;;;;;;;;12.38;89.51;99579.34;4992649;28;20276;-90
2023/04/22 05:02:01;;;;;;;;;;;;;;;12.48;87.62;99577.34;4998395;28;20011;-93
2023/04/22 05:04:27;;;;;;;;;;;;;;;12.50;87.11;99572.91;4993937;28;19941;-96
2023/04/22 05:06:52;;;;;;;;;;;;;;;12.61;87.08;99577.94;4993248;28;20330;-92
2023/04/22 05:09:18;;;;;;;;;;;;;;;12.91;85.70;99576.25;4990615;28;19920;-92
2023/04/22 05:11:44;;;;;;;;;;;;;;;13.15;84.13;99579.16;4993638;28;19921;-91
2023/04/22 05:14:09;;;;;;;;;;;;;;;13.08;85.00;99579.34;4989837;28;19963;-92
2023/04/22 05:16:34;;;;;;;;;;;;;;;13.08;84.83;99579.34;5011939;28;19979;-94
2023/04/22 05:19:01;;;;;;;;;;;;;;;13.31;83.56;99584.91;4992372;28;19921;-94
2023/04/22 05:21:26;;;;;;;;;;;;;;;13.24;85.27;99582.44;4995780;28;20015;-92
2023/04/22 05:23:52;;;;;;;;;;;;;;;13.30;84.77;99581.41;5001447;28;19959;-95
2023/04/22 05:26:17;;;;;;;;;;;;;;;13.49;85.04;99578.25;4995785;28;19918;-94
2023/04/22 05:28:43;;;;;;;;;;;;;;;13.67;84.43;99580.38;5015314;28;19921;-96
2023/04/22 05:31:09;;;;;;;;;;;;;;;13.87;84.51;99581.53;4997578;28;20367;-96
2023/04/22 05:33:34;;;;;;;;;;;;;;;14.34;83.89;99576.53;5044173;23;19921;-94
2023/04/22 05:36:01;;;;;;;;;;;;;;;14.31;82.66;99587.25;5035007;28;19917;-96
2023/04/22 05:38:27;;;;;;;;;;;;;;;14.38;81.09;99582.59;5029022;28;20369;-92
2023/04/22 05:40:52;;;;;;;;;;;;;;;14.63;80.29;99586.22;5029704;28;19991;-94
2023/04/22 05:43:17;;;;;;;;;;;;;;;14.73;79.05;99584.13;5019729;28;20027;-92
2023/04/22 05:45:43;;;;;;;;;;;;;;;14.72;79.07;99585.06;5015414;28;19924;-89
2023/04/22 05:48:08;;;;;;;;;;;;;;;14.84;78.57;99586.41;5026851;28;20330;-95
2023/04/22 05:50:34;;;;;;;;;;;;;;;14.83;78.57;99587.34;5015715;28;19921;-95
2023/04/22 05:53:00;;;;;;;;;;;;;;;14.94;77.79;99584.34;5015971;28;19921;-96
2023/04/22 05:55:26;;;;;;;;;;;;;;;14.66;78.11;99590.59;5014910;28;20417;-96
2023/04/22 05:57:52;;;;;;;;;;;;;;;14.13;81.33;99583.38;5015672;28;20020;-96
2023/04/22 06:00:18;;;;;;;;;;;;;;;14.68;80.72;99581.63;5011172;28;19925;-96
2023/04/22 06:02:46;;;;;;;;;;;;;;;14.79;80.15;99583.06;5036344;28;19993;-94
2023/04/22 06:05:11;;;;;;;;;;;;;;;15.13;78.77;99584.53;5031039;28;19921;-91
2023/04/22 06:07:37;;;;;;;;;;;;;;;15.56;76.96;99575.00;5024493;28;19928;-96
2023/04/22 06:10:02;;;;;;;;;;;;;;;15.29;77.35;99577.78;5018685;28;20303;-92
2023/04/22 06:12:29;;;;;;;;;;;;;;;15.43;77.41;99585.25;5014769;28;19940;-94
2023/04/22 06:14:57;;;;;;;;;;;;;;;15.74;77.49;99579.63;5014069;28;20066;-89
2023/04/22 06:17:23;;;;;;;;;;;;;;;15.91;73.02;99589.66;5014733;28;19923;-94
2023/04/22 06:19:48;;;;;;;;;;;;;;;16.16;75.24;99579.81;5026599;28;19999;-93
2023/04/22 06:22:13;;;;;;;;;;;;;;;16.13;73.20;99574.63;5011590;28;20013;-92
2023/04/22 06:24:39;;;;;;;;;;;;;;;16.84;72.77;99575.28;5031954;28;19952;-91
2023/04/22 06:27:08;;;;;;;;;;;;;;;16.31;72.00;99576.56;5033320;28;19939;-92
2023/04/22 06:29:33;;;;;;;;;;;;;;;17.14;70.29;99585.56;5028651;28;20390;-93
2023/04/22 06:31:59;;;;;;;;;;;;;;;16.60;69.40;99583.34;5015631;28;20358;-94
2023/04/22 06:34:25;;;;;;;;;;;;;;;17.00;69.86;99581.69;5009973;28;19960;-96
2023/04/22 06:36:52;;;;;;;;;;;;;;;17.47;67.08;99593.88;5038691;28;19916;-96
2023/04/22 06:39:18;;;;;;;;;;;;;;;18.08;66.30;99586.66;5022431;28;20008;-96
2023/04/22 06:41:44;;;;;;;;;;;;;;;17.99;64.74;99587.09;5014093;28;19925;-90
2023/04/22 06:44:10;;;;;;;;;;;;;;;17.51;64.75;99587.44;4999302;28;20120;-91
2023/04/22 06:46:37;;;;;;;;;;;;;;;17.91;65.54;99581.25;5010602;28;20458;-94
2023/04/22 06:49:03;;;;;;;;;;;;;;;18.38;64.61;99575.41;5015909;28;20390;-92
2023/04/22 06:51:28;;;;;;;;;;;;;;;18.72;62.48;99581.75;5012315;28;19932;-92
2023/04/22 06:53:53;;;;;;;;;;;;;;;19.21;59.45;99584.59;5032365;28;19913;-95
2023/04/22 06:56:19;;;;;;;;;;;;;;;19.08;60.46;99579.03;5032508;28;19917;-93
2023/04/22 06:58:44;;;;;;;;;;;;;;;19.10;61.30;99587.84;5032561;28;20059;-90
2023/04/22 07:01:09;;;;;;;;;;;;;;;19.60;59.16;99579.88;5032169;28;19913;-91
2023/04/22 07:03:35;;;;;;;;;;;;;;;20.01;56.87;99588.34;5033401;28;20397;-93
2023/04/22 07:06:00;;;;;;;;;;;;;;;19.71;57.92;99584.66;5039095;28;19924;-91
2023/04/22 07:08:25;;;;;;;;;;;;;;;19.72;61.68;99586.41;5032337;28;19920;-91
2023/04/22 07:10:51;;;;;;;;;;;;;;;19.60;60.49;99580.78;5031137;28;19909;-89
2023/04/22 07:13:17;;;;;;;;;;;;;;;20.17;57.53;99580.34;5031754;28;19916;-91
2023/04/22 07:15:45;;;;;;;;;;;;;;;20.25;57.46;99587.06;5031517;28;19917;-92
2023/04/22 07:18:10;;;;;;;;;;;;;;;20.37;56.68;99581.88;5012743;28;19928;-91
2023/04/22 07:20:35;;;;;;;;;;;;;;;20.54;54.35;99578.22;5031808;28;20365;-92
2023/04/22 07:23:01;;;;;;;;;;;;;;;20.25;54.38;99587.06;5006767;28;19917;-95
2023/04/22 07:25:26;;;;;;;;;;;;;;;19.77;55.64;99584.34;5007489;28;19944;-89
2023/04/22 07:27:51;;;;;;;;;;;;;;;20.00;56.46;99585.75;5015213;28;19983;-91
2023/04/22 07:30:17;;;;;;;;;;;;;;;19.82;54.72;99583.16;5031457;28;19917;-89
2023/04/22 07:32:42;;;;;;;;;;;;;;;20.22;55.36;99588.13;5031334;28;19913;-89
2023/04/22 07:35:07;;;;;;;;;;;;;;;20.47;53.28;99584.03;5031244;28;19996;-88
2023/04/22 07:37:33;;;;;;;;;;;;;;;20.45;53.97;99589.47;5031455;28;19917;-88
2023/04/22 07:39:58;;;;;;;;;;;;;;;19.80;53.92;99586.88;5031961;28;20020;-87
2023/04/22 07:42:23;;;;;;;;;;;;;;;20.05;54.28;99589.06;5031344;28;19962;-89
2023/04/22 07:44:49;;;;;;;;;;;;;;;20.67;54.51;99588.28;5031586;28;19913;-90
2023/04/22 07:47:14;;;;;;;;;;;;;;;20.95;53.55;99579.44;5003333;28;19917;-90
2023/04/22 07:49:39;;;;;;;;;;;;;;;21.03;48.88;99577.16;5012992;28;19914;-91
2023/04/22 07:52:05;;;;;;;;;;;;;;;20.78;52.56;99580.44;5026912;28;19924;-92
2023/04/22 07:54:30;;;;;;;;;;;;;;;20.08;50.62;99583.53;5041264;28;19917;-91
2023/04/22 07:56:57;;;;;;;;;;;;;;;19.45;51.67;99582.44;5043182;28;19952;-93
2023/04/22 07:59:22;;;;;;;;;;;;;;;19.87;54.74;99576.69;4998019;28;20382;-90
2023/04/22 08:01:47;;;;;;;;;;;;;;;20.54;52.88;99580.91;4999387;28;19924;-90
2023/04/22 08:04:13;;;;;;;;;;;;;;;20.73;53.91;99575.34;5022585;28;19917;-90
2023/04/22 08:06:38;;;;;;;;;;;;;;;20.53;53.29;99578.31;5016366;28;19924;-87
2023/04/22 08:09:03;;;;;;;;;;;;;;;20.57;56.09;99569.13;5011322;28;19941;-87
2023/04/22 08:11:29;;;;;;;;;;;;;;;20.64;52.07;99575.00;5010527;28;19936;-87
2023/04/22 08:13:54;;;;;;;;;;;;;;;20.77;52.95;99570.66;5011328;28;19921;-86
2023/04/22 08:16:20;;;;;;;;;;;;;;;20.92;52.91;99571.59;5010678;28;19914;-84
2023/04/22 08:18:45;;;;;;;;;;;;;;;21.02;52.84;99569.19;5011022;28;20371;-87
2023/04/22 08:21:11;;;;;;;;;;;;;;;21.41;50.42;99567.72;5010004;28;20427;-84
2023/04/22 08:23:36;;;;;;;;;;;;;;;21.73;48.94;99562.19;5010872;28;19983;-87
2023/04/22 08:26:02;;;;;;;;;;;;;;;21.86;50.23;99563.16;5020005;28;19936;-86
2023/04/22 08:28:28;;;;;;;;;;;;;;;22.20;48.65;99546.66;5012455;28;19920;-87
2023/04/22 08:30:53;;;;;;;;;;;;;;;22.66;47.75;99562.44;5029522;28;19913;-86
2023/04/22 08:33:18;;;;;;;;;;;;;;;22.30;46.71;99561.22;4998728;28;19917;-85
2023/04/22 08:35:44;;;;;;;;;;;;;;;21.98;44.46;99562.38;5013758;28;20327;-85
2023/04/22 08:38:09;;;;;;;;;;;;;;;22.12;45.55;99563.28;5014945;28;20311;-85
2023/04/22 08:40:34;;;;;;;;;;;;;;;21.94;45.91;99557.28;5017621;28;20382;-88
2023/04/22 08:43:00;;;;;;;;;;;;;;;22.29;45.98;99540.66;5010668;28;19987;-88
2023/04/22 08:45:25;;;;;;;;;;;;;;;21.92;47.46;99540.38;5010085;28;19920;-91
2023/04/22 08:47:52;;;;;;;;;;;;;;;22.25;48.39;99533.81;5008159;28;19917;-86
2023/04/22 08:50:19;;;;;;;;;;;;;;;21.61;48.81;99537.88;5010184;28;20446;-85
2023/04/22 08:52:45;;;;;;;;;;;;;;;21.36;48.67;99534.94;5011343;28;19913;-91
2023/04/22 08:55:10;;;;;;;;;;;;;;;21.52;48.31;99533.09;5014040;28;20012;-90
2023/04/22 08:57:37;;;;;;;;;;;;;;;21.76;47.87;99535.16;5012322;28;19913;-93
2023/04/22 09:00:03;;;;;;;;;;;;;;;21.95;52.59;99533.03;5015846;28;19917;-90
2023/04/22 09:02:30;;;;;;;;;;;;;;;22.42;47.66;99527.34;5011552;28;19921;-89
2023/04/22 09:04:57;;;;;;;;;;;;;;;22.33;46.78;99515.38;5010916;28;19971;-88
2023/04/22 09:07:23;;;;;;;;;;;;;;;22.11;46.24;99518.59;5012132;28;19913;-85
2023/04/22 09:09:49;;;;;;;;;;;;;;;22.26;47.53;99508.63;5011000;28;19914;-89
2023/04/22 09:12:17;;;;;;;;;;;;;;;22.63;46.67;99512.44;5010903;28;19921;-88
2023/04/22 09:14:42;;;;;;;;;;;;;;;22.66;45.28;99514.06;5014933;28;19913;-94
2023/04/22 09:17:08;;;;;;;;;;;;;;;22.38;47.61;99512.38;5008930;28;19913;-88
2023/04/22 09:19:33;;;;;;;;;;;;;;;21.84;50.29;99508.66;5010072;28;19918;-87
2023/04/22 09:22:00;;;;;;;;;;;;;;;21.94;47.46;99504.44;5007613;28;20109;-88
2023/04/22 09:24:25;;;;;;;;;;;;;;;22.08;46.17;99506.22;5018501;28;20032;-88
2023/04/22 09:26:53;;;;;;;;;;;;;;;22.55;44.50;99492.44;4997012;28;19909;-90
2023/04/22 09:29:18;;;;;;;;;;;;;;;22.30;46.33;99489.56;5014301;28;19975;-87
2023/04/22 09:31:48;;;;;;;;;;;;;;;22.18;46.60;99485.84;5016595;28;19913;-88
2023/04/22 09:34:13;;;;;;;;;;;;;;;21.91;47.57;99485.00;5023463;28;19924;-89
2023/04/22 09:36:39;;;;;;;;;;;;;;;21.76;44.96;99487.69;5037210;28;19917;-87
2023/04/22 09:39:07;;;;;;;;;;;;;;;21.92;45.38;99478.63;5029363;28;19913;-87
2023/04/22 09:41:32;;;;;;;;;;;;;;;21.96;42.70;99472.97;5043960;28;19909;-92
2023/04/22 09:43:58;;;;;;;;;;;;;;;21.85;48.34;99471.97;5010249;28;20062;-92
2023/04/22 09:46:25;;;;;;;;;;;;;;;22.09;47.17;99469.47;5027773;28;19920;-91
2023/04/22 09:48:52;;;;;;;;;;;;;;;22.34;45.05;99463.38;5025955;28;20012;-88
2023/04/22 09:51:18;;;;;;;;;;;;;;;22.87;45.21;99464.19;5032903;28;19916;-92
2023/04/22 09:53:43;;;;;;;;;;;;;;;22.48;45.25;99457.91;5014820;28;19917;-90
2023/04/22 09:56:08;;;;;;;;;;;;;;;22.47;43.52;99460.69;5034286;28;19963;-91
2023/04/22 09:58:38;;;;;;;;;;;;;;;22.23;44.15;99453.31;5033268;28;19913;-90
2023/04/22 10:01:03;;;;;;;;;;;;;;;22.00;45.36;99447.63;5006758;28;19917;-91
2023/04/22 10:03:28;;;;;;;;;;;;;;;21.88;44.26;99448.44;5031212;28;19920;-93
2023/04/22 10:05:54;;;;;;;;;;;;;;;21.39;44.87;99449.75;5036747;28;20373;-92
2023/04/22 10:08:19;;;;;;;;;;;;;;;21.59;46.11;99451.19;5014627;28;19924;-91
2023/04/22 10:10:44;;;;;;;;;;;;;;;21.53;45.33;99451.59;5029052;28;20129;-88
2023/04/22 10:13:10;;;;;;;;;;;;;;;21.75;44.94;99443.03;5027718;28;20483;-88
2023/04/22 10:15:43;;;;;;;;;;;;;;;21.63;44.23;99441.16;5029344;28;20319;-89
2023/04/22 10:18:12;;;;;;;;;;;;;;;21.56;44.09;99451.41;5032475;28;19927;-89
2023/04/22 10:20:39;;;;;;;;;;;;;;;21.40;46.88;99447.97;5033466;28;19946;-90
2023/04/22 10:23:10;;;;;;;;;;;;;;;22.05;46.24;99449.16;5031539;28;19971;-90
2023/04/22 10:25:36;;;;;;;;;;;;;;;21.73;44.89;99444.09;5032857;28;19913;-88
2023/04/22 10:28:02;;;;;;;;;;;;;;;21.40;45.64;99440.75;5032844;28;19913;-90
2023/04/22 10:30:29;;;;;;;;;;;;;;;20.96;44.99;99444.44;5031525;28;20402;-86
2023/04/22 10:32:54;;;;;;;;;;;;;;;20.63;45.74;99450.00;5032342;28;19927;-90
2023/04/22 10:35:25;;;;;;;;;;;;;;;20.24;48.48;99446.94;5033034;28;20007;-87
2023/04/22 10:37:52;;;;;;;;;;;;;;;19.97;51.26;99454.75;5015508;28;20387;-90
2023/04/22 10:40:17;;;;;;;;;;;;;;;19.51;53.29;99450.19;5032860;28;19920;-87
2023/04/22 10:42:48;;;;;;;;;;;;;;;19.38;53.56;99452.66;5032717;28;20398;-85
2023/04/22 10:45:14;;;;;;;;;;;;;;;19.75;52.75;99457.78;5032629;28;19917;-85
2023/04/22 10:47:43;;;;;;;;;;;;;;;19.70;52.52;99452.69;5032321;28;20012;-85
2023/04/22 10:50:17;;;;;;;;;;;;;;;19.64;52.86;99453.88;5032553;28;19921;-85
2023/04/22 10:52:44;;;;;;;;;;;;;;;19.96;51.41;99453.91;5031613;28;19920;-85
2023/04/22 10:55:10;;;;;;;;;;;;;;;19.88;52.33;99453.50;5031709;28;20375;-87
2023/04/22 10:57:38;;;;;;;;;;;;;;;20.06;52.49;99456.91;5031880;28;20015;-86
2023/04/22 11:00:20;;;;;;;;;;;;;;;20.47;49.68;99453.63;5031773;28;19936;-87
2023/04/22 11:02:49;;;;;;;;;;;;;;;20.09;48.98;99458.56;5026002;28;19917;-92
2023/04/22 11:05:26;;;;;;;;;;;;;;;19.89;49.75;99459.69;5011376;28;19949;-86
2023/04/22 11:07:55;;;;;;;;;;;;;;;19.93;47.78;99462.13;5011879;28;20457;-87
2023/04/22 11:10:40;;;;;;;;;;;;;;;19.90;49.42;99458.75;5044472;28;20353;-85
2023/04/22 11:13:07;;;;;;;;;;;;;;;20.00;48.98;99460.81;5050933;28;19998;-89
2023/04/22 11:15:34;;;;;;;;;;;;;;;20.22;48.40;99464.94;5041616;28;19917;-88
2023/04/22 11:17:59;;;;;;;;;;;;;;;20.48;46.27;99468.75;5034720;28;20375;-86
2023/04/22 11:20:24;;;;;;;;;;;;;;;20.21;45.30;99479.25;5030184;28;19995;-86
2023/04/22 11:22:52;;;;;;;;;;;;;;;19.23;45.13;99490.94;5030955;28;19917;-90
2023/04/22 11:25:18;;;;;;;;;;;;;;;18.40;43.75;99485.44;5013859;28;20420;-87
2023/04/22 11:27:44;;;;;;;;;;;;;;;18.30;44.78;99492.16;5030002;28;20036;-88
2023/04/22 11:30:13;;;;;;;;;;;;;;;18.36;43.68;99492.72;5031091;28;19913;-87
2023/04/22 11:32:51;;;;;;;;;;;;;;;18.41;45.62;99508.50;5030773;28;19913;-89
2023/04/22 11:35:21;;;;;;;;;;;;;;;18.48;44.49;99501.06;5031301;28;19913;-91
2023/04/22 11:37:50;;;;;;;;;;;;;;;18.40;44.85;99501.47;5030482;28;19917;-90
2023/04/22 11:40:20;;;;;;;;;;;;;;;18.79;46.92;99495.00;5011817;28;19921;-93
2023/04/22 11:42:46;;;;;;;;;;;;;;;18.78;45.92;99480.78;5030732;28;19913;-91
2023/04/22 11:45:15;;;;;;;;;;;;;;;18.38;46.54;99495.31;5030151;28;19935;-87
2023/04/22 11:47:41;;;;;;;;;;;;;;;18.33;47.05;99486.69;5030124;28;19996;-92
2023/04/22 11:50:11;;;;;;;;;;;;;;;18.44;45.48;99487.00;5028567;28;20003;-92
2023/04/22 11:52:44;;;;;;;;;;;;;;;18.48;45.94;99488.56;5030929;28;19960;-88
2023/04/22 11:55:10;;;;;;;;;;;;;;;18.48;45.11;99495.72;5029352;28;19921;-87
2023/04/22 11:57:36;;;;;;;;;;;;;;;18.33;42.97;99508.03;5030391;28;20402;-90
2023/04/22 12:00:01;;;;;;;;;;;;;;;18.45;44.19;99514.56;5029217;28;19963;-88
2023/04/22 12:02:27;;;;;;;;;;;;;;;18.63;43.10;99518.09;5010911;28;19980;-93
2023/04/22 12:04:52;;;;;;;;;;;;;;;18.34;42.80;99499.94;5029971;28;19974;-92
2023/04/22 12:07:17;;;;;;;;;;;;;;;18.69;44.47;99499.09;5012323;28;20014;-90
2023/04/22 12:09:43;;;;;;;;;;;;;;;18.67;42.60;99512.53;5014793;28;19913;-87
2023/04/22 12:12:08;;;;;;;;;;;;;;;18.36;43.15;99507.88;5033761;28;19960;-87
2023/04/22 12:14:34;;;;;;;;;;;;;;;18.34;45.36;99515.13;5030776;28;19945;-87
2023/04/22 12:17:04;;;;;;;;;;;;;;;18.07;44.38;99516.41;5029365;28;19913;-91
2023/04/22 12:19:29;;;;;;;;;;;;;;;17.61;44.51;99531.91;5030341;28;19970;-88
2023/04/22 12:21:55;;;;;;;;;;;;;;;17.72;45.96;99534.91;5030029;28;19917;-88
2023/04/22 12:24:26;;;;;;;;;;;;;;;17.62;46.81;99530.94;5030617;28;20309;-90
2023/04/22 12:26:51;;;;;;;;;;;;;;;17.91;47.16;99525.22;5030073;28;19913;-89
2023/04/22 12:29:25;;;;;;;;;;;;;;;17.79;51.69;99531.97;5030361;28;20004;-90
2023/04/22 12:31:50;;;;;;;;;;;;;;;17.74;52.66;99531.31;5029912;28;19913;-87
2023/04/22 12:34:16;;;;;;;;;;;;;;;18.11;53.61;99524.25;5030138;28;19986;-89
2023/04/22 12:36:41;;;;;;;;;;;;;;;17.77;52.53;99531.19;5030080;28;19971;-85
2023/04/22 12:39:06;;;;;;;;;;;;;;;17.51;53.09;99523.44;5029882;28;19963;-87
2023/04/22 12:41:32;;;;;;;;;;;;;;;17.21;52.22;99533.72;5029626;28;19913;-88
2023/04/22 12:43:57;;;;;;;;;;;;;;;17.06;52.10;99529.94;5030041;28;19913;-89
2023/04/22 12:46:22;;;;;;;;;;;;;;;17.29;52.42;99523.56;5034674;28;19956;-87
2023/04/22 12:48:48;;;;;;;;;;;;;;;17.31;49.60;99528.84;5033601;28;19950;-87